Anselmo, NE

9:36 PM CST on November 25, 2014 (GMT -0600)
Broken Bow Municipal | Change Station
CLOSE
Current Station
Airport
Location: Broken Bow,
Elevation: 2546 ft
Nearby Weather Stations

Elev 2546 ft 41.44 °N, 99.64 °W | Updated 43 minutes ago

Mostly Cloudy
Mostly Cloudy
40 °F
Feels Like 32 °F
N
14
Wind Variable Wind from WNW

Today
High -- | Low -- °F
--% Chance of Precip.
Yesterday
High -- | Low -- °F
Precip. -- in
7:39 AM 5:11 PM
Waxing Crescent, 16% visible
Pressure 29.93 in
Visibility 10.0 miles
Clouds Scattered Clouds 4100 ft
Windchill 32 °F
Dew Point 29 °F
Humidity 65%
Rainfall 0.00 in
Snow Depth Not available.
UV 0 out of 12
Pollen .10 out of 12
Air Quality Not available.
Flu Activity Not available.
METAR KBBW 260253Z AUTO 30012KT 10SM SCT041 04/M02 A2986 RMK AO2 SLP133 T00441017 51018

More Conditions Fewer Conditions

Pressure 29.93 in
Visibility 10.0 miles
Clouds Scattered Clouds 4100 ft
Windchill 32 °F
Dew Point 29 °F
Humidity 65%
Rainfall 0.00 in
Snow Depth Not available.
UV 0 out of 12
Pollen .10 out of 12
Air Quality Not available.
Flu Activity Not available.
METAR KBBW 260253Z AUTO 30012KT 10SM SCT041 04/M02 A2986 RMK AO2 SLP133 T00441017 51018

More Conditions Fewer Conditions

10-Day Weather Forecast

Almanac

Astronomy

Nov. 25, 2014 Rise Set
Actual Time
Civil Twilight
Nautical Twilight
Astronomical Twilight
Moon
Length of Visible Light
Length of Day
Tomorrow will be .
, % of the Moon is Illuminated

Today's Extremes

State Highs State Lows

Community

WunderPhotos

Upload Photos

1,773,676 photos uploaded!

WunderBlogs® & News

Nearby

Air Quality

  Air Quality AQ Index Pollutant
Not available.

Snow Depth

Station Depth Elevation

Earthquake Activity

City Distance Mag. Time & Date
Minimum magnitude displayed is 2.5.

Coastal Water Temperatures

Place Temperature

Nearby Weather Stations